createdAt,value
2017-07-08T00:00:58.654Z,72.95
2017-07-08T00:03:27.737Z,72.95
2017-07-08T00:05:56.820Z,73.19
2017-07-08T00:08:25.900Z,73.36
2017-07-08T00:10:54.988Z,73.62
2017-07-08T00:13:24.048Z,74.06
2017-07-08T00:15:53.108Z,74.19
2017-07-08T00:18:22.178Z,74.09
2017-07-08T00:20:51.232Z,74.38
2017-07-08T00:23:20.340Z,74.20
2017-07-08T00:25:49.426Z,73.96
2017-07-08T00:28:18.484Z,74.70
2017-07-08T00:30:47.645Z,74.10
2017-07-08T00:33:16.691Z,74.08
2017-07-08T00:35:45.784Z,74.01
2017-07-08T00:38:14.847Z,73.82
2017-07-08T00:40:43.914Z,74.11
2017-07-08T00:43:13.022Z,74.19
2017-07-08T00:45:42.068Z,74.47
2017-07-08T00:48:11.174Z,74.51
2017-07-08T00:50:40.239Z,74.54
2017-07-08T00:53:09.310Z,74.51
2017-07-08T00:55:38.395Z,74.72
2017-07-08T00:58:07.474Z,74.76
2017-07-08T01:00:36.515Z,74.58
2017-07-08T01:03:05.597Z,74.47
2017-07-08T01:05:34.658Z,74.27
2017-07-08T01:08:03.724Z,74.44
2017-07-08T01:10:32.811Z,74.56
2017-07-08T01:13:01.943Z,74.44
2017-07-08T01:15:31.014Z,74.52
2017-07-08T01:18:00.092Z,74.77
2017-07-08T01:20:29.152Z,74.87
2017-07-08T01:22:58.246Z,75.18
2017-07-08T01:25:27.316Z,75.09
2017-07-08T01:27:56.384Z,74.88
2017-07-08T01:30:25.457Z,74.74
2017-07-08T01:32:54.516Z,74.64
2017-07-08T01:35:23.625Z,74.53
2017-07-08T01:37:52.697Z,74.54
2017-07-08T01:40:21.815Z,74.58
2017-07-08T01:42:51.136Z,74.65
2017-07-08T01:45:20.344Z,75.07
2017-07-08T01:47:49.412Z,74.61
2017-07-08T01:50:18.533Z,74.81
2017-07-08T01:52:47.614Z,75.41
2017-07-08T01:55:16.686Z,75.39
2017-07-08T01:57:45.761Z,75.58
2017-07-08T02:00:14.867Z,75.91
2017-07-08T02:02:43.907Z,75.99
2017-07-08T02:05:13.133Z,76.47
2017-07-08T02:07:42.216Z,76.81
2017-07-08T02:10:11.345Z,77.36
2017-07-08T02:12:40.401Z,77.35
2017-07-08T02:15:09.469Z,77.34
2017-07-08T02:17:38.537Z,77.43
2017-07-08T02:20:07.650Z,77.52
2017-07-08T02:22:36.696Z,77.48
2017-07-08T02:25:05.753Z,77.66
2017-07-08T02:27:34.830Z,77.83
2017-07-08T02:30:03.883Z,77.87
2017-07-08T02:32:33.014Z,78.05
2017-07-08T02:35:02.127Z,78.23
2017-07-08T02:37:31.168Z,78.36
2017-07-08T02:40:00.259Z,78.56
2017-07-08T02:42:29.336Z,78.61
2017-07-08T02:44:58.391Z,78.64
2017-07-08T02:47:27.483Z,78.88
2017-07-08T02:49:56.517Z,78.89
2017-07-08T02:52:25.608Z,78.99
2017-07-08T02:54:54.674Z,79.28
2017-07-08T02:57:23.769Z,79.42
2017-07-08T02:59:52.840Z,79.54
2017-07-08T03:02:22.125Z,79.52
2017-07-08T03:04:51.243Z,79.56
2017-07-08T03:07:20.329Z,79.60
2017-07-08T03:09:49.438Z,79.61
2017-07-08T03:12:18.506Z,79.83
2017-07-08T03:14:47.591Z,79.56
2017-07-08T03:17:16.655Z,79.58
2017-07-08T03:19:45.928Z,79.63
2017-07-08T03:22:15.023Z,79.69
2017-07-08T03:24:44.095Z,79.69
2017-07-08T03:27:13.190Z,79.79
2017-07-08T03:29:42.227Z,79.65
2017-07-08T03:32:11.295Z,79.70
2017-07-08T03:34:40.386Z,79.75
2017-07-08T03:37:09.440Z,79.76
2017-07-08T03:39:38.540Z,79.86
2017-07-08T03:42:07.605Z,79.78
2017-07-08T03:44:36.689Z,79.93
2017-07-08T03:47:05.739Z,80.00
2017-07-08T03:49:34.798Z,79.94
2017-07-08T03:52:03.904Z,80.04
2017-07-08T03:54:32.986Z,80.03
2017-07-08T03:57:02.048Z,79.84
2017-07-08T03:59:31.123Z,79.65
2017-07-08T04:02:00.175Z,79.42
2017-07-08T04:04:29.237Z,78.99
2017-07-08T04:06:58.312Z,78.70
2017-07-08T04:09:27.373Z,78.92
2017-07-08T04:11:57.064Z,78.68
2017-07-08T04:14:27.285Z,78.71
2017-07-08T04:16:57.976Z,78.41
2017-07-08T04:19:27.062Z,78.77
2017-07-08T04:21:56.125Z,79.08
2017-07-08T04:24:25.209Z,79.30
2017-07-08T04:26:54.304Z,79.58
2017-07-08T04:29:23.380Z,79.46
2017-07-08T04:31:52.455Z,79.57
2017-07-08T04:34:21.528Z,79.80
2017-07-08T04:36:50.588Z,79.63
2017-07-08T04:39:19.671Z,79.75
2017-07-08T04:41:48.753Z,79.39
2017-07-08T04:44:17.813Z,79.35
2017-07-08T04:46:46.915Z,79.37
2017-07-08T04:49:15.956Z,79.65
2017-07-08T04:51:45.039Z,80.14
2017-07-08T04:54:14.214Z,80.00
2017-07-08T04:56:44.153Z,79.99
2017-07-08T04:59:13.250Z,80.22
2017-07-08T05:01:42.305Z,80.38
2017-07-08T05:04:11.404Z,80.21
2017-07-08T05:06:40.487Z,80.40
2017-07-08T05:09:09.564Z,80.41
2017-07-08T05:11:38.655Z,80.50
2017-07-08T05:14:07.868Z,80.42
2017-07-08T05:16:36.942Z,80.56
2017-07-08T05:19:05.997Z,80.56
2017-07-08T05:21:35.105Z,80.54
2017-07-08T05:24:04.216Z,80.60
2017-07-08T05:26:33.325Z,81.20
2017-07-08T05:29:02.399Z,81.25
2017-07-08T05:31:31.460Z,81.33
2017-07-08T05:34:00.599Z,81.19
2017-07-08T05:36:29.634Z,81.19
2017-07-08T05:38:58.741Z,80.78
2017-07-08T05:41:27.834Z,80.34
2017-07-08T05:43:56.868Z,80.18
2017-07-08T05:46:25.941Z,79.58
2017-07-08T05:48:55.022Z,79.30
2017-07-08T05:51:24.093Z,78.76
2017-07-08T05:53:53.206Z,78.40
2017-07-08T05:56:22.283Z,78.31
2017-07-08T05:58:51.347Z,78.24
2017-07-08T06:01:20.413Z,77.90
2017-07-08T06:03:49.481Z,78.18
2017-07-08T06:06:18.799Z,77.91
2017-07-08T06:08:47.852Z,77.69
2017-07-08T06:11:16.959Z,77.60
2017-07-08T06:13:46.049Z,76.71
2017-07-08T06:16:15.358Z,75.53
2017-07-08T06:18:44.501Z,74.59
2017-07-08T06:21:13.593Z,74.28
2017-07-08T06:23:42.644Z,74.19
2017-07-08T06:26:11.793Z,74.31
2017-07-08T06:28:40.852Z,73.57
2017-07-08T06:31:09.916Z,73.98
2017-07-08T06:33:39.019Z,73.69
2017-07-08T06:36:08.154Z,73.22
2017-07-08T06:38:37.260Z,72.21
2017-07-08T06:41:06.466Z,72.15
2017-07-08T06:43:35.543Z,72.48
2017-07-08T06:46:04.605Z,71.47
2017-07-08T06:48:33.676Z,71.60
2017-07-08T06:51:02.774Z,71.94
2017-07-08T06:53:31.828Z,71.57
2017-07-08T06:56:00.900Z,70.90
2017-07-08T06:58:29.961Z,70.98
2017-07-08T07:00:59.012Z,71.36
2017-07-08T07:03:28.134Z,70.44
2017-07-08T07:05:57.202Z,70.06
2017-07-08T07:08:26.293Z,69.82
2017-07-08T07:10:55.343Z,68.80
2017-07-08T07:13:24.544Z,68.75
2017-07-08T07:15:53.713Z,68.70
2017-07-08T07:18:22.794Z,69.15
2017-07-08T07:20:51.865Z,68.25
2017-07-08T07:23:20.943Z,68.81
2017-07-08T07:25:50.007Z,68.41
2017-07-08T07:28:19.097Z,68.65
2017-07-08T07:30:48.165Z,68.55
2017-07-08T07:33:17.243Z,68.09
2017-07-08T07:35:46.317Z,67.41
2017-07-08T07:38:15.437Z,67.71
2017-07-08T07:40:44.512Z,68.68
2017-07-08T07:43:13.793Z,68.57
2017-07-08T07:45:42.872Z,68.65
2017-07-08T07:48:11.909Z,68.49
2017-07-08T07:50:40.981Z,67.96
2017-07-08T07:53:10.053Z,68.43
2017-07-08T07:55:39.149Z,66.92
2017-07-08T07:58:08.260Z,66.65
2017-07-08T08:00:37.316Z,66.07
2017-07-08T08:03:06.417Z,65.29
2017-07-08T08:05:35.453Z,65.80
2017-07-08T08:08:04.547Z,65.79
2017-07-08T08:10:33.619Z,64.76
2017-07-08T08:13:02.737Z,64.87
2017-07-08T08:15:31.802Z,64.41
2017-07-08T08:18:00.903Z,64.76
2017-07-08T08:20:29.972Z,65.62
2017-07-08T08:22:59.042Z,64.53
2017-07-08T08:25:28.148Z,63.88
2017-07-08T08:27:57.215Z,63.26
2017-07-08T08:30:26.297Z,62.56
2017-07-08T08:32:55.391Z,63.64
2017-07-08T08:35:24.444Z,63.93
2017-07-08T08:37:53.510Z,62.19
2017-07-08T08:40:22.586Z,63.44
2017-07-08T08:42:51.672Z,62.41
2017-07-08T08:45:20.733Z,61.98
2017-07-08T08:47:49.789Z,62.20
2017-07-08T08:50:18.888Z,62.06
2017-07-08T08:52:47.953Z,62.55
2017-07-08T08:55:17.071Z,59.79
2017-07-08T08:57:46.105Z,60.20
2017-07-08T09:00:15.192Z,60.76
2017-07-08T09:02:44.276Z,59.35
2017-07-08T09:05:13.376Z,59.37
2017-07-08T09:07:42.483Z,58.39
2017-07-08T09:10:12.702Z,58.84
2017-07-08T09:12:41.749Z,58.90
2017-07-08T09:15:10.861Z,59.17
2017-07-08T09:17:39.959Z,58.06
2017-07-08T09:20:09.051Z,57.90
2017-07-08T09:22:38.099Z,57.94
2017-07-08T09:25:07.179Z,56.28
2017-07-08T09:27:36.437Z,56.97
2017-07-08T09:30:05.493Z,56.75
2017-07-08T09:32:34.621Z,56.93
2017-07-08T09:35:03.687Z,56.74
2017-07-08T09:37:32.744Z,54.55
2017-07-08T09:40:01.857Z,53.70
2017-07-08T09:42:30.932Z,52.92
2017-07-08T09:45:00.085Z,52.85
2017-07-08T09:47:29.237Z,51.50
2017-07-08T09:49:58.305Z,51.60
2017-07-08T09:52:28.135Z,50.47
2017-07-08T09:54:57.189Z,49.30
2017-07-08T09:57:26.273Z,47.48
2017-07-08T09:59:55.320Z,47.84
2017-07-08T10:02:24.405Z,47.92
2017-07-08T10:04:53.879Z,47.08
2017-07-08T10:07:22.934Z,48.43
2017-07-08T10:09:52.024Z,46.67
2017-07-08T10:12:22.135Z,47.73
2017-07-08T10:14:51.220Z,47.76
2017-07-08T10:17:20.309Z,47.28
2017-07-08T10:19:49.377Z,46.88
2017-07-08T10:22:18.467Z,47.90
2017-07-08T10:24:47.540Z,47.24
2017-07-08T10:27:16.625Z,46.22
2017-07-08T10:29:45.697Z,46.26
2017-07-08T10:32:14.763Z,47.02
2017-07-08T10:34:43.858Z,46.66
2017-07-08T10:37:13.012Z,45.40
2017-07-08T10:39:42.063Z,45.81
2017-07-08T10:42:11.237Z,45.79
2017-07-08T10:44:40.290Z,46.29
2017-07-08T10:47:09.369Z,47.05
2017-07-08T10:49:38.436Z,47.71
2017-07-08T10:52:07.514Z,48.42
2017-07-08T10:54:36.649Z,47.67
2017-07-08T10:57:05.723Z,47.73
2017-07-08T10:59:34.767Z,47.38
2017-07-08T11:02:03.872Z,47.65
2017-07-08T11:04:32.912Z,47.45
2017-07-08T11:07:01.977Z,47.92
2017-07-08T11:09:31.061Z,44.97
2017-07-08T11:12:00.126Z,46.44
2017-07-08T11:14:29.192Z,44.84
2017-07-08T11:16:58.473Z,44.94
2017-07-08T11:19:27.536Z,45.57
2017-07-08T11:21:56.644Z,45.81
2017-07-08T11:24:25.688Z,46.35
2017-07-08T11:26:54.786Z,45.59
2017-07-08T11:29:23.844Z,46.22
2017-07-08T11:31:52.922Z,45.49
2017-07-08T11:34:22.001Z,44.40
2017-07-08T11:36:51.055Z,43.62
2017-07-08T11:42:37.976Z,43.80
2017-07-08T11:45:07.056Z,44.40
2017-07-08T11:47:36.089Z,44.90
2017-07-08T11:50:05.143Z,44.08
2017-07-08T11:52:34.387Z,44.39
2017-07-08T11:55:03.428Z,44.38
2017-07-08T11:57:32.546Z,44.79
2017-07-08T12:00:01.682Z,45.99
2017-07-08T12:02:30.747Z,46.40
2017-07-08T12:04:59.836Z,46.20
2017-07-08T12:07:28.927Z,46.26
2017-07-08T12:09:58.034Z,46.50
2017-07-08T12:12:27.072Z,46.43
2017-07-08T12:14:56.149Z,46.22
2017-07-08T12:17:25.216Z,46.74
2017-07-08T12:19:54.295Z,46.09
2017-07-08T12:22:23.413Z,46.24
2017-07-08T12:24:52.537Z,45.50
2017-07-08T12:27:21.584Z,44.20
2017-07-08T12:29:50.711Z,44.03
2017-07-08T12:32:19.791Z,43.34
2017-07-08T12:34:48.833Z,43.58
2017-07-08T12:37:17.885Z,43.52
2017-07-08T12:39:46.969Z,43.86
2017-07-08T12:42:16.051Z,44.07
2017-07-08T12:44:45.116Z,44.04
2017-07-08T12:47:14.221Z,44.02
2017-07-08T12:49:43.432Z,44.21
2017-07-08T12:52:12.517Z,44.98
2017-07-08T12:54:41.693Z,44.06
2017-07-08T12:57:10.748Z,44.17
2017-07-08T12:59:39.845Z,44.29
2017-07-08T13:02:08.932Z,45.08
2017-07-08T13:04:37.997Z,44.92
2017-07-08T13:07:07.049Z,44.90
2017-07-08T13:09:36.152Z,45.02
2017-07-08T13:12:05.239Z,45.36
2017-07-08T13:14:34.324Z,45.72
2017-07-08T13:17:03.414Z,47.01
2017-07-08T13:19:32.487Z,45.41
2017-07-08T13:22:01.628Z,45.42
2017-07-08T13:24:30.708Z,45.17
2017-07-08T13:26:59.787Z,44.64
2017-07-08T13:29:28.837Z,45.16
2017-07-08T13:31:57.917Z,44.80
2017-07-08T13:34:26.987Z,44.86
2017-07-08T13:36:56.037Z,44.49
2017-07-08T13:39:25.101Z,45.02
2017-07-08T13:41:54.162Z,45.03
2017-07-08T13:44:23.219Z,46.31
2017-07-08T13:46:52.321Z,45.33
2017-07-08T13:49:21.383Z,45.53
2017-07-08T13:51:50.427Z,44.74
2017-07-08T13:54:19.464Z,46.34
2017-07-08T13:56:48.544Z,45.50
2017-07-08T13:59:17.596Z,45.80
2017-07-08T14:01:46.672Z,46.02
2017-07-08T14:04:15.732Z,46.45
2017-07-08T14:06:44.808Z,46.02
2017-07-08T14:09:13.880Z,46.43
2017-07-08T14:11:42.983Z,46.16
2017-07-08T14:14:12.061Z,46.13
2017-07-08T14:16:41.139Z,46.32
2017-07-08T14:19:10.706Z,45.45
2017-07-08T14:21:39.978Z,45.60
2017-07-08T14:24:09.277Z,44.92
2017-07-08T14:26:38.524Z,45.57
2017-07-08T14:29:07.747Z,45.61
2017-07-08T14:31:36.831Z,45.03
2017-07-08T14:34:05.989Z,45.95
2017-07-08T14:36:35.037Z,45.43
2017-07-08T14:39:04.136Z,46.50
2017-07-08T14:41:33.223Z,46.84
2017-07-08T14:44:02.275Z,47.43
2017-07-08T14:46:31.333Z,47.56
2017-07-08T14:49:00.776Z,47.24
2017-07-08T14:51:29.850Z,46.98
2017-07-08T14:53:58.931Z,47.11
2017-07-08T14:56:28.004Z,46.92
2017-07-08T14:58:57.117Z,45.87
2017-07-08T15:01:26.196Z,46.73
2017-07-08T15:03:55.324Z,46.03
2017-07-08T15:06:24.419Z,47.33
2017-07-08T15:08:53.476Z,46.39
2017-07-08T15:11:22.562Z,47.18
2017-07-08T15:13:52.509Z,46.38
2017-07-08T15:16:21.612Z,46.35
2017-07-08T15:18:50.692Z,45.15
2017-07-08T15:21:19.780Z,45.84
2017-07-08T15:23:48.847Z,46.20
2017-07-08T15:26:17.910Z,45.41
2017-07-08T15:28:46.999Z,45.63
2017-07-08T15:31:16.074Z,45.37
2017-07-08T15:33:45.121Z,46.06
2017-07-08T15:36:14.188Z,46.31
2017-07-08T15:38:43.300Z,47.29
2017-07-08T15:41:12.388Z,47.86
2017-07-08T15:43:41.480Z,47.05
2017-07-08T15:46:10.565Z,47.34
2017-07-08T15:48:39.617Z,48.45
2017-07-08T15:51:08.679Z,48.98
2017-07-08T15:53:37.757Z,49.38
2017-07-08T15:56:06.821Z,49.41
2017-07-08T15:58:35.929Z,50.07
2017-07-08T16:01:04.987Z,49.95
2017-07-08T16:03:34.083Z,49.46
2017-07-08T16:06:03.227Z,49.50
2017-07-08T16:08:32.287Z,49.92
2017-07-08T16:11:01.358Z,49.90
2017-07-08T16:13:30.438Z,50.04
2017-07-08T16:15:59.489Z,50.58
2017-07-08T16:18:28.560Z,50.63
2017-07-08T16:20:57.621Z,50.53
2017-07-08T16:23:26.707Z,49.72
2017-07-08T16:25:55.789Z,50.29
2017-07-08T16:28:24.850Z,49.84
2017-07-08T16:30:53.930Z,50.22
2017-07-08T16:33:23.004Z,50.09
2017-07-08T16:35:52.114Z,50.42
2017-07-08T16:38:21.160Z,50.52
2017-07-08T16:40:50.416Z,50.54
2017-07-08T16:43:19.640Z,50.68
2017-07-08T16:45:48.721Z,50.53
2017-07-08T16:48:17.833Z,50.87
2017-07-08T16:50:46.924Z,50.76
2017-07-08T16:53:16.053Z,51.16
2017-07-08T16:55:45.127Z,51.37
2017-07-08T16:58:14.191Z,51.37
2017-07-08T17:00:43.333Z,52.14
2017-07-08T17:03:12.405Z,52.68
2017-07-08T17:05:41.474Z,53.25
2017-07-08T17:08:10.704Z,53.74
2017-07-08T17:10:39.794Z,53.91
2017-07-08T17:13:09.198Z,54.26
2017-07-08T17:15:38.298Z,54.31
2017-07-08T17:18:07.395Z,54.57
2017-07-08T17:20:36.460Z,54.49
2017-07-08T17:23:05.559Z,54.64
2017-07-08T17:25:34.649Z,54.76
2017-07-08T17:28:03.744Z,55.05
2017-07-08T17:30:32.795Z,55.16
2017-07-08T17:33:01.906Z,55.13
2017-07-08T17:35:31.002Z,55.21
2017-07-08T17:38:00.128Z,55.43
2017-07-08T17:40:29.357Z,55.32
2017-07-08T17:42:58.459Z,54.83
2017-07-08T17:45:27.529Z,54.61
2017-07-08T17:47:56.856Z,54.32
2017-07-08T17:50:25.940Z,53.72
2017-07-08T17:52:55.033Z,53.13
2017-07-08T17:55:24.048Z,52.86
2017-07-08T17:57:53.119Z,53.02
2017-07-08T18:00:22.186Z,53.32
2017-07-08T18:02:51.234Z,53.53
2017-07-08T18:05:20.345Z,53.09
2017-07-08T18:07:49.408Z,53.21
2017-07-08T18:10:18.512Z,52.90
2017-07-08T18:12:47.580Z,53.30
2017-07-08T18:15:16.666Z,53.53
2017-07-08T18:17:45.730Z,53.46
2017-07-08T18:20:14.789Z,53.70
2017-07-08T18:22:43.854Z,53.60
2017-07-08T18:25:12.910Z,53.72
2017-07-08T18:27:41.996Z,53.62
2017-07-08T18:30:11.165Z,53.92
2017-07-08T18:32:40.244Z,53.86
2017-07-08T18:35:09.338Z,54.03
2017-07-08T18:37:38.404Z,54.08
2017-07-08T18:40:07.742Z,53.91
2017-07-08T18:42:36.804Z,54.16
2017-07-08T18:45:05.887Z,53.88
2017-07-08T18:47:34.936Z,53.96
2017-07-08T18:50:04.015Z,54.14
2017-07-08T18:52:33.064Z,54.40
2017-07-08T18:55:02.173Z,54.76
2017-07-08T18:57:31.201Z,54.71
2017-07-08T19:00:00.252Z,55.01
2017-07-08T19:02:29.323Z,55.02
2017-07-08T19:04:58.382Z,55.09
2017-07-08T19:07:27.444Z,55.17
2017-07-08T19:09:56.521Z,55.52
2017-07-08T19:12:25.590Z,55.98
2017-07-08T19:14:54.674Z,56.39
2017-07-08T19:17:23.715Z,56.68
2017-07-08T19:19:52.788Z,57.01
2017-07-08T19:22:21.893Z,57.24
2017-07-08T19:24:50.974Z,57.57
2017-07-08T19:27:20.016Z,57.98
2017-07-08T19:29:49.127Z,58.76
2017-07-08T19:32:18.335Z,59.21
2017-07-08T19:34:47.386Z,59.39
2017-07-08T19:37:16.520Z,59.72
2017-07-08T19:39:45.826Z,59.83
2017-07-08T19:42:14.891Z,60.07
2017-07-08T19:44:43.964Z,60.43
2017-07-08T19:47:13.022Z,60.63
2017-07-08T19:49:42.370Z,61.09
2017-07-08T19:52:11.434Z,61.50
2017-07-08T19:54:40.497Z,61.73
2017-07-08T19:57:09.578Z,61.96
2017-07-08T19:59:38.682Z,62.08
2017-07-08T20:02:07.789Z,62.37
2017-07-08T20:04:36.885Z,62.62
2017-07-08T20:07:05.976Z,62.91
2017-07-08T20:09:35.083Z,63.28
2017-07-08T20:12:04.168Z,63.57
2017-07-08T20:14:33.267Z,63.95
2017-07-08T20:17:02.340Z,64.08
2017-07-08T20:19:31.468Z,64.26
2017-07-08T20:22:00.548Z,64.45
2017-07-08T20:24:29.601Z,64.73
2017-07-08T20:26:58.666Z,65.02
2017-07-08T20:29:27.752Z,65.07
2017-07-08T20:31:56.833Z,65.38
2017-07-08T20:34:25.872Z,65.68
2017-07-08T20:36:54.952Z,65.85
2017-07-08T20:39:24.025Z,66.20
2017-07-08T20:41:53.118Z,66.27
2017-07-08T20:44:22.200Z,66.55
2017-07-08T20:46:51.261Z,66.76
2017-07-08T20:49:20.347Z,66.92
2017-07-08T20:51:49.425Z,66.79
2017-07-08T20:54:18.494Z,66.78
2017-07-08T20:56:47.564Z,66.62
2017-07-08T20:59:16.629Z,66.74
2017-07-08T21:01:45.724Z,66.81
2017-07-08T21:04:14.779Z,66.63
2017-07-08T21:06:44.119Z,66.47
2017-07-08T21:09:13.212Z,66.49
2017-07-08T21:11:42.345Z,66.10
2017-07-08T21:14:11.460Z,66.27
2017-07-08T21:16:40.534Z,66.53
2017-07-08T21:19:09.659Z,66.83
2017-07-08T21:21:38.708Z,66.71
2017-07-08T21:24:07.884Z,66.81
2017-07-08T21:26:36.984Z,66.68
2017-07-08T21:29:06.076Z,66.78
2017-07-08T21:31:35.148Z,66.58
2017-07-08T21:34:04.245Z,66.83
2017-07-08T21:36:33.351Z,66.84
2017-07-08T21:39:02.457Z,66.90
2017-07-08T21:41:31.517Z,67.06
2017-07-08T21:44:00.607Z,67.30
2017-07-08T21:46:29.690Z,67.44
2017-07-08T21:48:58.744Z,67.63
2017-07-08T21:51:27.937Z,67.90
2017-07-08T21:53:57.009Z,68.24
2017-07-08T21:56:26.108Z,68.32
2017-07-08T21:58:55.179Z,68.86
2017-07-08T22:01:24.476Z,69.44
2017-07-08T22:03:53.530Z,70.15
2017-07-08T22:06:22.598Z,70.43
2017-07-08T22:08:51.695Z,70.60
2017-07-08T22:11:20.764Z,70.87
2017-07-08T22:13:51.023Z,71.23
2017-07-08T22:16:20.106Z,71.47
2017-07-08T22:18:49.188Z,71.76
2017-07-08T22:21:18.410Z,71.72
2017-07-08T22:23:47.488Z,71.89
2017-07-08T22:26:16.579Z,72.04
2017-07-08T22:28:45.649Z,72.23
2017-07-08T22:31:14.746Z,72.53
2017-07-08T22:33:43.817Z,72.69
2017-07-08T22:36:12.882Z,72.73
2017-07-08T22:38:41.966Z,72.80
2017-07-08T22:41:11.049Z,72.91
2017-07-08T22:43:40.133Z,72.83
2017-07-08T22:46:09.244Z,72.75
2017-07-08T22:48:38.512Z,72.62
2017-07-08T22:51:07.622Z,72.74
2017-07-08T22:53:36.705Z,72.82
2017-07-08T22:56:05.807Z,73.28
2017-07-08T22:58:34.861Z,73.22
2017-07-08T23:01:03.978Z,73.41
2017-07-08T23:03:33.021Z,73.78
2017-07-08T23:06:02.136Z,73.86
2017-07-08T23:08:31.209Z,74.10
2017-07-08T23:11:00.304Z,74.23
2017-07-08T23:13:29.356Z,74.44
2017-07-08T23:15:58.441Z,74.58
2017-07-08T23:18:27.543Z,74.78
2017-07-08T23:20:56.642Z,74.77
2017-07-08T23:23:25.724Z,75.04
2017-07-08T23:25:54.802Z,75.25
2017-07-08T23:28:23.879Z,75.47
2017-07-08T23:30:52.937Z,75.64
2017-07-08T23:33:22.056Z,75.51
2017-07-08T23:35:51.192Z,75.57
2017-07-08T23:38:20.244Z,75.57
2017-07-08T23:40:49.316Z,75.81
2017-07-08T23:43:18.447Z,76.03
2017-07-08T23:45:47.529Z,76.38
2017-07-08T23:48:16.849Z,76.41
2017-07-08T23:50:45.913Z,76.57
2017-07-08T23:53:15.011Z,76.64
2017-07-08T23:55:44.072Z,76.52
2017-07-08T23:58:13.224Z,76.78
